Ballindalloch, United Kingdom
Current Conditions -  °F | °C
As of 12:50 PM on Saturday 25 Oct 2014 (Local Time) from EGQK Reporting Station
Scattered Clouds Scattered Clouds  
Wind Chill: 55°   Ceiling: Unl
Heat Index: 55°   Visibility: 6mi
Dew Point: 41°   Wind: 24mph
Humidity: 58%   Direction: 220°SW
Pressure: 29.47"   Gusts: 37mph
Location:  57.41°N, 3.36°W
Report Text: EGQK 251150Z AUTO 22021G32KT 9999 SCT050/// 13/05 Q0998
Loading
Personal Weather Stations






























Interactive Weather Map
Tropical Storm Tracking
New forecast layout! Learn more

10-Day Weather Forecast

Advertisements
Track Severe Weather on mobile